sensor_id;sensor_type;location;lat;lon;timestamp;P1;durP1;ratioP1;P2;durP2;ratioP2
78752;SDS011;68072;51.688;7.842;2023-04-08T00:01:52;17.77;;;8.00;;
78752;SDS011;68072;51.688;7.842;2023-04-08T00:04:18;12.48;;;7.60;;
78752;SDS011;68072;51.688;7.842;2023-04-08T00:06:43;10.40;;;6.85;;
78752;SDS011;68072;51.688;7.842;2023-04-08T00:09:09;11.02;;;6.80;;
78752;SDS011;68072;51.688;7.842;2023-04-08T00:11:35;11.70;;;6.82;;
78752;SDS011;68072;51.688;7.842;2023-04-08T00:14:02;12.55;;;6.85;;
78752;SDS011;68072;51.688;7.842;2023-04-08T00:16:28;11.27;;;7.05;;
78752;SDS011;68072;51.688;7.842;2023-04-08T00:18:53;9.77;;;6.07;;
78752;SDS011;68072;51.688;7.842;2023-04-08T00:21:19;9.38;;;6.55;;
78752;SDS011;68072;51.688;7.842;2023-04-08T00:23:45;10.55;;;6.35;;
78752;SDS011;68072;51.688;7.842;2023-04-08T00:26:11;13.45;;;7.55;;
78752;SDS011;68072;51.688;7.842;2023-04-08T00:28:36;9.68;;;6.50;;
78752;SDS011;68072;51.688;7.842;2023-04-08T00:31:02;14.13;;;6.90;;
78752;SDS011;68072;51.688;7.842;2023-04-08T00:33:27;8.80;;;6.15;;
78752;SDS011;68072;51.688;7.842;2023-04-08T00:35:53;12.32;;;6.78;;
78752;SDS011;68072;51.688;7.842;2023-04-08T00:38:18;10.45;;;7.13;;
78752;SDS011;68072;51.688;7.842;2023-04-08T00:40:44;15.05;;;8.40;;
78752;SDS011;68072;51.688;7.842;2023-04-08T00:43:09;14.55;;;7.25;;
78752;SDS011;68072;51.688;7.842;2023-04-08T00:45:35;12.75;;;7.10;;
78752;SDS011;68072;51.688;7.842;2023-04-08T00:48:01;12.32;;;7.68;;
78752;SDS011;68072;51.688;7.842;2023-04-08T00:55:17;10.13;;;6.20;;
78752;SDS011;68072;51.688;7.842;2023-04-08T00:57:43;11.68;;;7.03;;
78752;SDS011;68072;51.688;7.842;2023-04-08T01:00:09;12.60;;;7.38;;
78752;SDS011;68072;51.688;7.842;2023-04-08T01:02:41;12.90;;;7.28;;
78752;SDS011;68072;51.688;7.842;2023-04-08T01:05:14;9.82;;;6.47;;
78752;SDS011;68072;51.688;7.842;2023-04-08T01:07:48;13.38;;;7.03;;
78752;SDS011;68072;51.688;7.842;2023-04-08T01:10:19;13.07;;;7.03;;
78752;SDS011;68072;51.688;7.842;2023-04-08T01:13:06;10.43;;;7.00;;
78752;SDS011;68072;51.688;7.842;2023-04-08T01:15:34;9.65;;;6.55;;
78752;SDS011;68072;51.688;7.842;2023-04-08T01:18:01;11.38;;;7.20;;
78752;SDS011;68072;51.688;7.842;2023-04-08T01:20:30;10.85;;;6.43;;
78752;SDS011;68072;51.688;7.842;2023-04-08T01:25:34;12.15;;;7.13;;
78752;SDS011;68072;51.688;7.842;2023-04-08T01:28:02;11.63;;;7.18;;
78752;SDS011;68072;51.688;7.842;2023-04-08T01:30:29;11.52;;;6.68;;
78752;SDS011;68072;51.688;7.842;2023-04-08T01:32:55;11.50;;;7.32;;
78752;SDS011;68072;51.688;7.842;2023-04-08T01:35:21;11.38;;;7.35;;
78752;SDS011;68072;51.688;7.842;2023-04-08T01:37:47;11.95;;;6.93;;
78752;SDS011;68072;51.688;7.842;2023-04-08T01:40:14;12.60;;;7.07;;
78752;SDS011;68072;51.688;7.842;2023-04-08T01:42:40;12.23;;;6.63;;
78752;SDS011;68072;51.688;7.842;2023-04-08T01:45:06;8.93;;;6.57;;
78752;SDS011;68072;51.688;7.842;2023-04-08T01:47:33;10.98;;;6.57;;
78752;SDS011;68072;51.688;7.842;2023-04-08T01:49:59;11.13;;;6.35;;
78752;SDS011;68072;51.688;7.842;2023-04-08T01:52:25;9.65;;;6.70;;
78752;SDS011;68072;51.688;7.842;2023-04-08T01:54:52;10.65;;;7.03;;
78752;SDS011;68072;51.688;7.842;2023-04-08T01:57:21;10.50;;;6.57;;
78752;SDS011;68072;51.688;7.842;2023-04-08T01:59:49;12.48;;;6.40;;
78752;SDS011;68072;51.688;7.842;2023-04-08T02:02:17;9.93;;;6.20;;
78752;SDS011;68072;51.688;7.842;2023-04-08T02:04:44;11.18;;;6.63;;
78752;SDS011;68072;51.688;7.842;2023-04-08T02:07:10;8.98;;;6.18;;
78752;SDS011;68072;51.688;7.842;2023-04-08T02:09:36;11.48;;;7.45;;
78752;SDS011;68072;51.688;7.842;2023-04-08T02:12:01;13.18;;;7.43;;
78752;SDS011;68072;51.688;7.842;2023-04-08T02:14:27;12.10;;;7.78;;
78752;SDS011;68072;51.688;7.842;2023-04-08T02:16:53;14.38;;;9.10;;
78752;SDS011;68072;51.688;7.842;2023-04-08T02:19:23;12.75;;;8.52;;
78752;SDS011;68072;51.688;7.842;2023-04-08T02:21:53;12.07;;;8.27;;
78752;SDS011;68072;51.688;7.842;2023-04-08T02:24:20;12.50;;;8.73;;
78752;SDS011;68072;51.688;7.842;2023-04-08T02:26:46;16.48;;;8.98;;
78752;SDS011;68072;51.688;7.842;2023-04-08T02:29:14;13.95;;;8.10;;
78752;SDS011;68072;51.688;7.842;2023-04-08T02:31:41;19.85;;;10.13;;
78752;SDS011;68072;51.688;7.842;2023-04-08T02:34:07;16.58;;;8.60;;
78752;SDS011;68072;51.688;7.842;2023-04-08T02:36:34;12.40;;;8.20;;
78752;SDS011;68072;51.688;7.842;2023-04-08T02:39:00;13.43;;;8.20;;
78752;SDS011;68072;51.688;7.842;2023-04-08T02:41:29;15.90;;;9.38;;
78752;SDS011;68072;51.688;7.842;2023-04-08T02:43:55;13.68;;;7.80;;
78752;SDS011;68072;51.688;7.842;2023-04-08T02:46:21;17.40;;;9.50;;
78752;SDS011;68072;51.688;7.842;2023-04-08T02:48:46;12.90;;;8.52;;
78752;SDS011;68072;51.688;7.842;2023-04-08T02:51:12;21.38;;;8.70;;
78752;SDS011;68072;51.688;7.842;2023-04-08T02:53:37;16.50;;;8.55;;
78752;SDS011;68072;51.688;7.842;2023-04-08T02:56:03;13.50;;;9.15;;
78752;SDS011;68072;51.688;7.842;2023-04-08T02:58:28;14.95;;;8.70;;
78752;SDS011;68072;51.688;7.842;2023-04-08T03:00:54;15.30;;;9.10;;
78752;SDS011;68072;51.688;7.842;2023-04-08T03:03:19;15.95;;;9.13;;
78752;SDS011;68072;51.688;7.842;2023-04-08T03:05:51;17.20;;;9.48;;
78752;SDS011;68072;51.688;7.842;2023-04-08T03:08:17;16.73;;;9.02;;
78752;SDS011;68072;51.688;7.842;2023-04-08T03:10:42;20.17;;;9.05;;
78752;SDS011;68072;51.688;7.842;2023-04-08T03:13:08;18.58;;;9.50;;
78752;SDS011;68072;51.688;7.842;2023-04-08T03:15:33;16.27;;;9.30;;
78752;SDS011;68072;51.688;7.842;2023-04-08T03:17:59;15.65;;;9.88;;
78752;SDS011;68072;51.688;7.842;2023-04-08T03:20:24;14.43;;;8.88;;
78752;SDS011;68072;51.688;7.842;2023-04-08T03:22:49;15.85;;;8.50;;
78752;SDS011;68072;51.688;7.842;2023-04-08T03:25:15;15.48;;;9.10;;
78752;SDS011;68072;51.688;7.842;2023-04-08T03:27:40;14.95;;;9.20;;
78752;SDS011;68072;51.688;7.842;2023-04-08T03:30:06;13.68;;;8.60;;
78752;SDS011;68072;51.688;7.842;2023-04-08T03:32:32;18.48;;;9.68;;
78752;SDS011;68072;51.688;7.842;2023-04-08T03:34:57;17.35;;;8.68;;
78752;SDS011;68072;51.688;7.842;2023-04-08T03:37:23;14.45;;;8.35;;
78752;SDS011;68072;51.688;7.842;2023-04-08T03:39:48;13.50;;;8.60;;
78752;SDS011;68072;51.688;7.842;2023-04-08T03:42:14;13.77;;;8.40;;
78752;SDS011;68072;51.688;7.842;2023-04-08T03:44:39;13.50;;;8.15;;
78752;SDS011;68072;51.688;7.842;2023-04-08T03:47:04;15.02;;;8.27;;
78752;SDS011;68072;51.688;7.842;2023-04-08T03:49:30;16.15;;;8.65;;
78752;SDS011;68072;51.688;7.842;2023-04-08T03:51:55;11.25;;;7.18;;
78752;SDS011;68072;51.688;7.842;2023-04-08T03:54:21;12.43;;;7.47;;
78752;SDS011;68072;51.688;7.842;2023-04-08T03:56:47;10.80;;;7.32;;
78752;SDS011;68072;51.688;7.842;2023-04-08T03:59:13;13.90;;;7.95;;
78752;SDS011;68072;51.688;7.842;2023-04-08T04:01:39;13.20;;;8.70;;
78752;SDS011;68072;51.688;7.842;2023-04-08T04:04:04;17.10;;;8.15;;
78752;SDS011;68072;51.688;7.842;2023-04-08T04:06:30;13.85;;;8.32;;
78752;SDS011;68072;51.688;7.842;2023-04-08T04:08:56;15.80;;;9.30;;
78752;SDS011;68072;51.688;7.842;2023-04-08T04:11:21;14.23;;;8.55;;
78752;SDS011;68072;51.688;7.842;2023-04-08T04:13:47;17.40;;;9.35;;
78752;SDS011;68072;51.688;7.842;2023-04-08T04:16:12;17.02;;;9.30;;
78752;SDS011;68072;51.688;7.842;2023-04-08T04:18:38;18.42;;;9.10;;
78752;SDS011;68072;51.688;7.842;2023-04-08T04:21:06;14.98;;;9.27;;
78752;SDS011;68072;51.688;7.842;2023-04-08T04:23:32;16.38;;;8.73;;
78752;SDS011;68072;51.688;7.842;2023-04-08T04:25:57;18.83;;;10.63;;
78752;SDS011;68072;51.688;7.842;2023-04-08T04:28:22;13.35;;;9.20;;
78752;SDS011;68072;51.688;7.842;2023-04-08T04:30:48;12.93;;;8.13;;
78752;SDS011;68072;51.688;7.842;2023-04-08T04:33:13;14.93;;;8.43;;
78752;SDS011;68072;51.688;7.842;2023-04-08T04:35:39;14.73;;;8.60;;
78752;SDS011;68072;51.688;7.842;2023-04-08T04:38:05;17.25;;;9.13;;
78752;SDS011;68072;51.688;7.842;2023-04-08T04:40:35;20.02;;;9.77;;
78752;SDS011;68072;51.688;7.842;2023-04-08T04:43:00;17.65;;;9.40;;
78752;SDS011;68072;51.688;7.842;2023-04-08T04:45:26;20.05;;;9.60;;
78752;SDS011;68072;51.688;7.842;2023-04-08T04:47:51;14.18;;;8.75;;
78752;SDS011;68072;51.688;7.842;2023-04-08T04:50:17;13.38;;;8.25;;
78752;SDS011;68072;51.688;7.842;2023-04-08T04:52:42;16.23;;;10.00;;
78752;SDS011;68072;51.688;7.842;2023-04-08T04:55:08;14.70;;;9.38;;
78752;SDS011;68072;51.688;7.842;2023-04-08T04:57:33;18.05;;;9.27;;
78752;SDS011;68072;51.688;7.842;2023-04-08T04:59:59;10.70;;;7.22;;
78752;SDS011;68072;51.688;7.842;2023-04-08T05:02:25;15.55;;;8.30;;
78752;SDS011;68072;51.688;7.842;2023-04-08T05:04:50;16.90;;;8.95;;
78752;SDS011;68072;51.688;7.842;2023-04-08T05:07:17;13.15;;;7.90;;
78752;SDS011;68072;51.688;7.842;2023-04-08T05:09:43;12.30;;;7.72;;
78752;SDS011;68072;51.688;7.842;2023-04-08T05:12:08;16.55;;;8.68;;
78752;SDS011;68072;51.688;7.842;2023-04-08T05:14:34;15.43;;;8.90;;
78752;SDS011;68072;51.688;7.842;2023-04-08T05:17:00;14.85;;;8.50;;
78752;SDS011;68072;51.688;7.842;2023-04-08T05:19:25;16.42;;;9.00;;
78752;SDS011;68072;51.688;7.842;2023-04-08T05:21:51;16.50;;;8.55;;
78752;SDS011;68072;51.688;7.842;2023-04-08T05:24:16;20.55;;;10.13;;
78752;SDS011;68072;51.688;7.842;2023-04-08T05:26:42;17.27;;;9.40;;
78752;SDS011;68072;51.688;7.842;2023-04-08T05:29:07;17.60;;;10.65;;
78752;SDS011;68072;51.688;7.842;2023-04-08T05:31:32;20.30;;;10.25;;
78752;SDS011;68072;51.688;7.842;2023-04-08T05:33:58;18.67;;;10.55;;
78752;SDS011;68072;51.688;7.842;2023-04-08T05:36:23;14.27;;;8.90;;
78752;SDS011;68072;51.688;7.842;2023-04-08T05:38:50;23.65;;;10.57;;
78752;SDS011;68072;51.688;7.842;2023-04-08T05:41:15;19.38;;;10.32;;
78752;SDS011;68072;51.688;7.842;2023-04-08T05:43:41;18.85;;;9.75;;
78752;SDS011;68072;51.688;7.842;2023-04-08T05:46:06;16.23;;;9.18;;
78752;SDS011;68072;51.688;7.842;2023-04-08T05:48:35;15.55;;;9.32;;
78752;SDS011;68072;51.688;7.842;2023-04-08T05:51:01;15.32;;;9.15;;
78752;SDS011;68072;51.688;7.842;2023-04-08T05:53:26;17.40;;;10.38;;
78752;SDS011;68072;51.688;7.842;2023-04-08T05:55:52;17.08;;;9.85;;
78752;SDS011;68072;51.688;7.842;2023-04-08T05:58:17;21.08;;;9.77;;
78752;SDS011;68072;51.688;7.842;2023-04-08T06:00:43;14.30;;;9.80;;
78752;SDS011;68072;51.688;7.842;2023-04-08T06:03:08;17.58;;;10.23;;
78752;SDS011;68072;51.688;7.842;2023-04-08T06:05:33;18.23;;;10.88;;
78752;SDS011;68072;51.688;7.842;2023-04-08T06:07:59;21.63;;;11.20;;
78752;SDS011;68072;51.688;7.842;2023-04-08T06:10:24;19.08;;;10.73;;
78752;SDS011;68072;51.688;7.842;2023-04-08T06:12:50;18.35;;;10.35;;
78752;SDS011;68072;51.688;7.842;2023-04-08T06:15:15;12.35;;;8.77;;
78752;SDS011;68072;51.688;7.842;2023-04-08T06:17:41;16.60;;;10.23;;
78752;SDS011;68072;51.688;7.842;2023-04-08T06:20:06;18.65;;;9.48;;
78752;SDS011;68072;51.688;7.842;2023-04-08T06:22:33;16.10;;;9.43;;
78752;SDS011;68072;51.688;7.842;2023-04-08T06:27:25;14.43;;;9.47;;
78752;SDS011;68072;51.688;7.842;2023-04-08T06:29:50;14.55;;;9.20;;
78752;SDS011;68072;51.688;7.842;2023-04-08T06:32:17;13.52;;;8.60;;
78752;SDS011;68072;51.688;7.842;2023-04-08T06:34:44;16.95;;;9.52;;
78752;SDS011;68072;51.688;7.842;2023-04-08T06:37:09;20.63;;;10.00;;
78752;SDS011;68072;51.688;7.842;2023-04-08T06:39:35;15.52;;;9.18;;
78752;SDS011;68072;51.688;7.842;2023-04-08T06:42:00;19.35;;;9.68;;
78752;SDS011;68072;51.688;7.842;2023-04-08T06:44:26;14.32;;;8.93;;
78752;SDS011;68072;51.688;7.842;2023-04-08T06:46:52;14.07;;;8.48;;
78752;SDS011;68072;51.688;7.842;2023-04-08T06:49:17;13.88;;;8.18;;
78752;SDS011;68072;51.688;7.842;2023-04-08T06:51:43;18.67;;;8.70;;
78752;SDS011;68072;51.688;7.842;2023-04-08T06:54:08;16.17;;;9.85;;
78752;SDS011;68072;51.688;7.842;2023-04-08T06:56:36;14.18;;;8.43;;
78752;SDS011;68072;51.688;7.842;2023-04-08T06:59:02;13.23;;;8.52;;
78752;SDS011;68072;51.688;7.842;2023-04-08T07:01:28;13.40;;;7.90;;
78752;SDS011;68072;51.688;7.842;2023-04-08T07:03:54;14.45;;;8.73;;
78752;SDS011;68072;51.688;7.842;2023-04-08T07:06:19;13.25;;;7.88;;
78752;SDS011;68072;51.688;7.842;2023-04-08T07:08:45;15.85;;;8.30;;
78752;SDS011;68072;51.688;7.842;2023-04-08T07:11:10;11.43;;;7.25;;
78752;SDS011;68072;51.688;7.842;2023-04-08T07:13:36;13.80;;;7.60;;
78752;SDS011;68072;51.688;7.842;2023-04-08T07:16:01;13.35;;;8.07;;
78752;SDS011;68072;51.688;7.842;2023-04-08T07:18:27;16.13;;;7.93;;
78752;SDS011;68072;51.688;7.842;2023-04-08T07:20:53;11.23;;;7.35;;
78752;SDS011;68072;51.688;7.842;2023-04-08T07:23:18;12.32;;;7.55;;
78752;SDS011;68072;51.688;7.842;2023-04-08T07:25:44;14.27;;;8.20;;
78752;SDS011;68072;51.688;7.842;2023-04-08T07:28:10;15.50;;;7.90;;
78752;SDS011;68072;51.688;7.842;2023-04-08T07:30:36;12.48;;;7.93;;
78752;SDS011;68072;51.688;7.842;2023-04-08T07:33:01;12.40;;;7.35;;
78752;SDS011;68072;51.688;7.842;2023-04-08T07:35:27;10.85;;;7.00;;
78752;SDS011;68072;51.688;7.842;2023-04-08T07:37:53;10.68;;;6.60;;
78752;SDS011;68072;51.688;7.842;2023-04-08T07:40:19;12.75;;;7.00;;
78752;SDS011;68072;51.688;7.842;2023-04-08T07:42:44;17.50;;;7.07;;
78752;SDS011;68072;51.688;7.842;2023-04-08T07:45:10;9.90;;;6.35;;
78752;SDS011;68072;51.688;7.842;2023-04-08T07:47:35;15.27;;;6.75;;
78752;SDS011;68072;51.688;7.842;2023-04-08T07:50:01;12.73;;;6.85;;
78752;SDS011;68072;51.688;7.842;2023-04-08T07:52:29;10.25;;;6.28;;
78752;SDS011;68072;51.688;7.842;2023-04-08T07:54:55;12.52;;;7.13;;
78752;SDS011;68072;51.688;7.842;2023-04-08T07:57:20;12.32;;;6.57;;
78752;SDS011;68072;51.688;7.842;2023-04-08T07:59:46;10.10;;;6.68;;
78752;SDS011;68072;51.688;7.842;2023-04-08T08:02:11;10.15;;;6.43;;
78752;SDS011;68072;51.688;7.842;2023-04-08T08:04:36;8.35;;;5.88;;
78752;SDS011;68072;51.688;7.842;2023-04-08T08:07:02;8.95;;;5.75;;
78752;SDS011;68072;51.688;7.842;2023-04-08T08:09:27;11.45;;;6.20;;
78752;SDS011;68072;51.688;7.842;2023-04-08T08:11:52;9.48;;;5.93;;
78752;SDS011;68072;51.688;7.842;2023-04-08T08:14:18;14.18;;;6.40;;
78752;SDS011;68072;51.688;7.842;2023-04-08T08:16:43;9.60;;;6.25;;
78752;SDS011;68072;51.688;7.842;2023-04-08T08:19:09;10.13;;;5.65;;
78752;SDS011;68072;51.688;7.842;2023-04-08T08:21:36;12.90;;;6.43;;
78752;SDS011;68072;51.688;7.842;2023-04-08T08:24:02;10.10;;;5.72;;
78752;SDS011;68072;51.688;7.842;2023-04-08T08:26:27;10.98;;;6.55;;
78752;SDS011;68072;51.688;7.842;2023-04-08T08:28:53;11.75;;;6.60;;
78752;SDS011;68072;51.688;7.842;2023-04-08T08:31:18;8.73;;;5.68;;
78752;SDS011;68072;51.688;7.842;2023-04-08T08:33:44;9.93;;;5.90;;
78752;SDS011;68072;51.688;7.842;2023-04-08T08:36:10;10.10;;;6.30;;
78752;SDS011;68072;51.688;7.842;2023-04-08T08:38:36;10.80;;;6.05;;
78752;SDS011;68072;51.688;7.842;2023-04-08T08:41:01;6.40;;;4.95;;
78752;SDS011;68072;51.688;7.842;2023-04-08T08:43:28;7.50;;;4.97;;
78752;SDS011;68072;51.688;7.842;2023-04-08T08:45:53;8.52;;;5.60;;
78752;SDS011;68072;51.688;7.842;2023-04-08T08:48:19;9.43;;;5.78;;
78752;SDS011;68072;51.688;7.842;2023-04-08T08:50:44;8.88;;;5.88;;
78752;SDS011;68072;51.688;7.842;2023-04-08T08:53:10;11.57;;;5.72;;
78752;SDS011;68072;51.688;7.842;2023-04-08T08:55:36;8.38;;;6.07;;
78752;SDS011;68072;51.688;7.842;2023-04-08T08:58:03;8.52;;;5.40;;
78752;SDS011;68072;51.688;7.842;2023-04-08T09:00:33;7.97;;;5.50;;
78752;SDS011;68072;51.688;7.842;2023-04-08T09:03:19;7.63;;;4.70;;
78752;SDS011;68072;51.688;7.842;2023-04-08T09:06:00;7.85;;;5.05;;
78752;SDS011;68072;51.688;7.842;2023-04-08T09:08:30;7.93;;;4.78;;
78752;SDS011;68072;51.688;7.842;2023-04-08T09:11:09;9.10;;;5.28;;
78752;SDS011;68072;51.688;7.842;2023-04-08T09:13:38;7.75;;;4.47;;
78752;SDS011;68072;51.688;7.842;2023-04-08T09:16:04;9.20;;;5.38;;
78752;SDS011;68072;51.688;7.842;2023-04-08T09:18:31;8.95;;;5.95;;
78752;SDS011;68072;51.688;7.842;2023-04-08T09:21:01;7.85;;;5.00;;
78752;SDS011;68072;51.688;7.842;2023-04-08T09:26:13;7.35;;;4.45;;
78752;SDS011;68072;51.688;7.842;2023-04-08T09:28:40;8.18;;;5.13;;
78752;SDS011;68072;51.688;7.842;2023-04-08T09:31:19;8.80;;;5.45;;
78752;SDS011;68072;51.688;7.842;2023-04-08T09:33:46;9.52;;;5.35;;
78752;SDS011;68072;51.688;7.842;2023-04-08T09:36:12;7.90;;;5.25;;
78752;SDS011;68072;51.688;7.842;2023-04-08T09:38:39;9.80;;;6.00;;
78752;SDS011;68072;51.688;7.842;2023-04-08T09:41:05;8.00;;;4.53;;
78752;SDS011;68072;51.688;7.842;2023-04-08T09:43:40;9.10;;;5.35;;
78752;SDS011;68072;51.688;7.842;2023-04-08T09:46:13;8.43;;;5.30;;
78752;SDS011;68072;51.688;7.842;2023-04-08T09:48:42;10.68;;;5.97;;
78752;SDS011;68072;51.688;7.842;2023-04-08T09:51:13;7.20;;;5.28;;
78752;SDS011;68072;51.688;7.842;2023-04-08T09:53:44;6.35;;;4.78;;
78752;SDS011;68072;51.688;7.842;2023-04-08T09:56:11;8.50;;;5.53;;
78752;SDS011;68072;51.688;7.842;2023-04-08T09:58:44;11.63;;;6.20;;
78752;SDS011;68072;51.688;7.842;2023-04-08T10:01:16;11.85;;;5.30;;
78752;SDS011;68072;51.688;7.842;2023-04-08T10:03:51;7.65;;;4.97;;
78752;SDS011;68072;51.688;7.842;2023-04-08T10:06:18;7.88;;;5.32;;
78752;SDS011;68072;51.688;7.842;2023-04-08T10:08:46;8.77;;;5.22;;
78752;SDS011;68072;51.688;7.842;2023-04-08T10:11:13;9.63;;;6.00;;
78752;SDS011;68072;51.688;7.842;2023-04-08T10:13:39;9.65;;;5.85;;
78752;SDS011;68072;51.688;7.842;2023-04-08T10:16:17;12.48;;;6.38;;
78752;SDS011;68072;51.688;7.842;2023-04-08T10:18:51;13.98;;;7.53;;
78752;SDS011;68072;51.688;7.842;2023-04-08T10:21:30;12.02;;;7.15;;
78752;SDS011;68072;51.688;7.842;2023-04-08T10:23:59;11.98;;;7.55;;
78752;SDS011;68072;51.688;7.842;2023-04-08T10:26:42;12.23;;;7.00;;
78752;SDS011;68072;51.688;7.842;2023-04-08T10:31:46;11.15;;;6.57;;
78752;SDS011;68072;51.688;7.842;2023-04-08T10:36:43;11.27;;;7.15;;
78752;SDS011;68072;51.688;7.842;2023-04-08T10:39:09;12.13;;;7.13;;
78752;SDS011;68072;51.688;7.842;2023-04-08T10:41:34;10.10;;;6.40;;
78752;SDS011;68072;51.688;7.842;2023-04-08T10:44:02;10.82;;;5.93;;
78752;SDS011;68072;51.688;7.842;2023-04-08T10:46:28;8.65;;;5.60;;
78752;SDS011;68072;51.688;7.842;2023-04-08T10:48:59;8.75;;;5.88;;
78752;SDS011;68072;51.688;7.842;2023-04-08T10:51:30;8.43;;;5.43;;
78752;SDS011;68072;51.688;7.842;2023-04-08T10:54:04;11.27;;;6.70;;
78752;SDS011;68072;51.688;7.842;2023-04-08T10:56:31;9.07;;;6.13;;
78752;SDS011;68072;51.688;7.842;2023-04-08T10:58:57;10.70;;;6.38;;
78752;SDS011;68072;51.688;7.842;2023-04-08T11:01:24;9.77;;;5.70;;
78752;SDS011;68072;51.688;7.842;2023-04-08T11:03:50;7.20;;;5.20;;
78752;SDS011;68072;51.688;7.842;2023-04-08T11:06:16;7.80;;;5.47;;
78752;SDS011;68072;51.688;7.842;2023-04-08T11:08:41;9.57;;;6.10;;
78752;SDS011;68072;51.688;7.842;2023-04-08T11:11:08;9.52;;;5.78;;
78752;SDS011;68072;51.688;7.842;2023-04-08T11:13:35;8.35;;;6.03;;
78752;SDS011;68072;51.688;7.842;2023-04-08T11:16:06;9.93;;;5.78;;
78752;SDS011;68072;51.688;7.842;2023-04-08T11:18:34;9.57;;;6.07;;
78752;SDS011;68072;51.688;7.842;2023-04-08T11:21:02;7.60;;;5.93;;
78752;SDS011;68072;51.688;7.842;2023-04-08T11:23:28;9.15;;;6.50;;
78752;SDS011;68072;51.688;7.842;2023-04-08T11:25:54;8.95;;;5.90;;
78752;SDS011;68072;51.688;7.842;2023-04-08T11:28:19;10.55;;;6.05;;
78752;SDS011;68072;51.688;7.842;2023-04-08T11:30:45;10.73;;;6.25;;
78752;SDS011;68072;51.688;7.842;2023-04-08T11:33:12;9.18;;;5.85;;
78752;SDS011;68072;51.688;7.842;2023-04-08T11:35:41;10.30;;;6.60;;
78752;SDS011;68072;51.688;7.842;2023-04-08T11:38:08;9.50;;;6.18;;
78752;SDS011;68072;51.688;7.842;2023-04-08T11:40:34;9.65;;;6.47;;
78752;SDS011;68072;51.688;7.842;2023-04-08T11:42:59;10.45;;;6.07;;
78752;SDS011;68072;51.688;7.842;2023-04-08T11:45:37;9.05;;;6.30;;
78752;SDS011;68072;51.688;7.842;2023-04-08T11:48:10;8.73;;;6.25;;
78752;SDS011;68072;51.688;7.842;2023-04-08T11:50:36;8.80;;;6.72;;
78752;SDS011;68072;51.688;7.842;2023-04-08T11:53:01;11.07;;;6.70;;
78752;SDS011;68072;51.688;7.842;2023-04-08T11:55:30;10.95;;;6.65;;
78752;SDS011;68072;51.688;7.842;2023-04-08T11:58:00;9.32;;;6.22;;
78752;SDS011;68072;51.688;7.842;2023-04-08T12:00:27;9.10;;;6.25;;
78752;SDS011;68072;51.688;7.842;2023-04-08T12:02:52;10.30;;;6.50;;
78752;SDS011;68072;51.688;7.842;2023-04-08T12:05:18;10.68;;;6.68;;
78752;SDS011;68072;51.688;7.842;2023-04-08T12:07:43;11.35;;;7.03;;
78752;SDS011;68072;51.688;7.842;2023-04-08T12:10:09;12.38;;;6.80;;
78752;SDS011;68072;51.688;7.842;2023-04-08T12:12:36;10.45;;;6.93;;
78752;SDS011;68072;51.688;7.842;2023-04-08T12:15:01;12.27;;;6.60;;
78752;SDS011;68072;51.688;7.842;2023-04-08T12:17:27;10.73;;;6.97;;
78752;SDS011;68072;51.688;7.842;2023-04-08T12:19:52;11.20;;;6.95;;
78752;SDS011;68072;51.688;7.842;2023-04-08T12:22:18;11.93;;;6.97;;
78752;SDS011;68072;51.688;7.842;2023-04-08T12:24:43;10.23;;;6.40;;
78752;SDS011;68072;51.688;7.842;2023-04-08T12:27:09;11.10;;;7.22;;
78752;SDS011;68072;51.688;7.842;2023-04-08T12:29:34;9.80;;;6.90;;
78752;SDS011;68072;51.688;7.842;2023-04-08T12:31:59;13.10;;;7.05;;
78752;SDS011;68072;51.688;7.842;2023-04-08T12:36:51;9.27;;;6.30;;
78752;SDS011;68072;51.688;7.842;2023-04-08T12:39:17;13.80;;;6.88;;
78752;SDS011;68072;51.688;7.842;2023-04-08T12:41:42;10.50;;;7.22;;
78752;SDS011;68072;51.688;7.842;2023-04-08T12:44:07;9.82;;;6.47;;
78752;SDS011;68072;51.688;7.842;2023-04-08T12:46:33;9.27;;;6.78;;
78752;SDS011;68072;51.688;7.842;2023-04-08T12:48:58;16.70;;;8.95;;
78752;SDS011;68072;51.688;7.842;2023-04-08T12:51:24;11.15;;;7.18;;
78752;SDS011;68072;51.688;7.842;2023-04-08T12:53:50;12.00;;;7.20;;
78752;SDS011;68072;51.688;7.842;2023-04-08T12:56:15;14.25;;;7.20;;
78752;SDS011;68072;51.688;7.842;2023-04-08T12:58:41;10.13;;;6.95;;
78752;SDS011;68072;51.688;7.842;2023-04-08T13:01:06;14.60;;;8.15;;
78752;SDS011;68072;51.688;7.842;2023-04-08T13:03:32;14.25;;;7.63;;
78752;SDS011;68072;51.688;7.842;2023-04-08T13:05:58;11.43;;;7.05;;
78752;SDS011;68072;51.688;7.842;2023-04-08T13:08:24;12.35;;;7.40;;
78752;SDS011;68072;51.688;7.842;2023-04-08T13:10:50;13.50;;;7.35;;
78752;SDS011;68072;51.688;7.842;2023-04-08T13:13:15;11.73;;;7.07;;
78752;SDS011;68072;51.688;7.842;2023-04-08T13:15:41;14.68;;;7.50;;
78752;SDS011;68072;51.688;7.842;2023-04-08T13:18:07;13.15;;;6.85;;
78752;SDS011;68072;51.688;7.842;2023-04-08T13:20:33;16.42;;;7.95;;
78752;SDS011;68072;51.688;7.842;2023-04-08T13:22:59;12.18;;;7.78;;
78752;SDS011;68072;51.688;7.842;2023-04-08T13:25:25;12.82;;;8.38;;
78752;SDS011;68072;51.688;7.842;2023-04-08T13:27:50;13.57;;;7.88;;
78752;SDS011;68072;51.688;7.842;2023-04-08T13:30:16;12.82;;;7.70;;
78752;SDS011;68072;51.688;7.842;2023-04-08T13:32:41;14.73;;;8.38;;
78752;SDS011;68072;51.688;7.842;2023-04-08T13:35:07;16.65;;;8.70;;
78752;SDS011;68072;51.688;7.842;2023-04-08T13:37:32;14.20;;;8.40;;
78752;SDS011;68072;51.688;7.842;2023-04-08T13:39:58;17.02;;;8.48;;
78752;SDS011;68072;51.688;7.842;2023-04-08T13:42:23;11.82;;;7.45;;
78752;SDS011;68072;51.688;7.842;2023-04-08T13:44:49;16.52;;;8.15;;
78752;SDS011;68072;51.688;7.842;2023-04-08T13:47:14;13.65;;;8.45;;
78752;SDS011;68072;51.688;7.842;2023-04-08T13:49:40;13.18;;;7.53;;
78752;SDS011;68072;51.688;7.842;2023-04-08T13:52:05;14.30;;;8.95;;
78752;SDS011;68072;51.688;7.842;2023-04-08T13:54:31;13.05;;;8.02;;
78752;SDS011;68072;51.688;7.842;2023-04-08T13:56:56;15.60;;;8.27;;
78752;SDS011;68072;51.688;7.842;2023-04-08T13:59:22;15.32;;;8.52;;
78752;SDS011;68072;51.688;7.842;2023-04-08T14:01:47;15.68;;;8.32;;
78752;SDS011;68072;51.688;7.842;2023-04-08T14:04:13;15.27;;;7.57;;
78752;SDS011;68072;51.688;7.842;2023-04-08T14:06:38;15.57;;;8.95;;
78752;SDS011;68072;51.688;7.842;2023-04-08T14:09:03;14.07;;;8.25;;
78752;SDS011;68072;51.688;7.842;2023-04-08T14:11:29;13.32;;;7.90;;
78752;SDS011;68072;51.688;7.842;2023-04-08T14:13:54;14.02;;;8.60;;
78752;SDS011;68072;51.688;7.842;2023-04-08T14:16:20;12.77;;;8.02;;
78752;SDS011;68072;51.688;7.842;2023-04-08T14:18:45;15.18;;;8.55;;
78752;SDS011;68072;51.688;7.842;2023-04-08T14:21:11;16.65;;;8.52;;
78752;SDS011;68072;51.688;7.842;2023-04-08T14:23:38;14.48;;;8.15;;
78752;SDS011;68072;51.688;7.842;2023-04-08T14:26:04;14.57;;;8.57;;
78752;SDS011;68072;51.688;7.842;2023-04-08T14:28:29;17.00;;;8.88;;
78752;SDS011;68072;51.688;7.842;2023-04-08T14:30:55;15.98;;;8.15;;
78752;SDS011;68072;51.688;7.842;2023-04-08T14:33:20;13.05;;;7.85;;
78752;SDS011;68072;51.688;7.842;2023-04-08T14:35:46;14.85;;;8.05;;
78752;SDS011;68072;51.688;7.842;2023-04-08T14:38:12;16.85;;;8.52;;
78752;SDS011;68072;51.688;7.842;2023-04-08T14:40:37;15.63;;;9.02;;
78752;SDS011;68072;51.688;7.842;2023-04-08T14:43:02;13.05;;;8.13;;
78752;SDS011;68072;51.688;7.842;2023-04-08T14:45:28;17.45;;;9.23;;
78752;SDS011;68072;51.688;7.842;2023-04-08T14:47:53;14.13;;;8.68;;
78752;SDS011;68072;51.688;7.842;2023-04-08T14:50:19;16.80;;;8.93;;
78752;SDS011;68072;51.688;7.842;2023-04-08T14:52:44;18.13;;;9.80;;